Time;durP1;ratioP1;P1;durP2;ratioP2;P2;SDS_P1;SDS_P2;PMS_P1;PMS_P2;Temp;Humidity;BMP_temperature;BMP_pressure;BME280_temperature;BME280_humidity;BME280_pressure;Samples;Min_cycle;Max_cycle;Signal;HPM_P1;HPM_P2
2021/12/29 00:00:09;;;;;;;29.70;10.82;;;6.30;99.90;;;;;;5118298;27;20042;-85
2021/12/29 00:02:35;;;;;;;28.85;10.10;;;6.20;99.90;;;;;;5091748;27;20100;-85
2021/12/29 00:05:00;;;;;;;33.33;10.48;;;6.30;99.90;;;;;;5092403;27;20046;-86
2021/12/29 00:07:26;;;;;;;38.83;10.35;;;6.30;99.90;;;;;;5120624;27;20091;-85
2021/12/29 00:09:54;;;;;;;28.13;9.30;;;6.30;99.90;;;;;;5102257;27;20430;-85
2021/12/29 00:12:25;;;;;;;30.27;10.70;;;6.30;99.90;;;;;;5092984;27;20042;-85
2021/12/29 00:14:51;;;;;;;26.23;9.17;;;6.30;99.90;;;;;;5099531;27;20509;-86
2021/12/29 00:17:17;;;;;;;25.17;9.50;;;6.30;99.90;;;;;;5111078;27;20043;-86
2021/12/29 00:19:42;;;;;;;32.00;10.00;;;6.30;99.90;;;;;;5110845;27;20760;-85
2021/12/29 00:22:08;;;;;;;30.20;9.70;;;6.30;99.90;;;;;;5108133;28;20398;-85
2021/12/29 00:24:34;;;;;;;35.88;10.73;;;6.30;99.90;;;;;;5088660;27;20047;-85
2021/12/29 00:27:00;;;;;;;36.35;10.07;;;6.40;99.90;;;;;;5106705;28;20275;-85
2021/12/29 00:29:25;;;;;;;32.97;10.68;;;6.40;99.90;;;;;;5106224;28;20039;-86
2021/12/29 00:31:51;;;;;;;43.28;11.57;;;6.40;99.90;;;;;;5088993;28;20047;-85
2021/12/29 00:34:17;;;;;;;39.47;11.02;;;6.40;99.90;;;;;;5106154;27;20046;-86
2021/12/29 00:36:43;;;;;;;52.17;11.75;;;6.40;99.90;;;;;;5105637;28;20046;-85
2021/12/29 00:39:09;;;;;;;48.83;10.73;;;6.50;99.90;;;;;;5088382;28;20050;-85
2021/12/29 00:41:34;;;;;;;48.60;13.35;;;6.50;99.90;;;;;;5085891;28;20082;-86
2021/12/29 00:44:00;;;;;;;46.55;11.88;;;7.10;99.90;;;;;;5105891;27;20043;-85
2021/12/29 00:46:26;;;;;;;50.35;12.55;;;6.50;99.90;;;;;;5110560;27;20512;-85
2021/12/29 00:48:51;;;;;;;62.88;13.93;;;6.50;99.90;;;;;;5091238;27;20047;-84
2021/12/29 00:51:17;;;;;;;56.60;13.55;;;6.50;99.90;;;;;;5092870;27;20382;-85
2021/12/29 00:53:43;;;;;;;68.93;13.93;;;6.50;99.90;;;;;;5108908;27;20086;-86
2021/12/29 00:56:09;;;;;;;60.97;14.63;;;6.60;99.90;;;;;;5095517;28;20761;-86
2021/12/29 00:58:35;;;;;;;90.88;14.63;;;6.60;99.90;;;;;;5079987;27;20092;-86
2021/12/29 01:01:02;;;;;;;78.43;14.73;;;6.60;99.90;;;;;;5107809;27;20050;-86
2021/12/29 01:03:28;;;;;;;66.85;14.52;;;6.50;99.90;;;;;;5091166;27;20122;-85
2021/12/29 01:05:54;;;;;;;77.10;15.73;;;6.60;99.90;;;;;;5092493;27;21009;-87
2021/12/29 01:08:20;;;;;;;71.18;16.02;;;6.60;99.90;;;;;;5115590;27;20049;-85
2021/12/29 01:10:46;;;;;;;83.80;16.10;;;6.60;99.90;;;;;;5118229;27;20042;-85
2021/12/29 01:13:18;;;;;;;73.82;16.33;;;6.60;99.90;;;;;;5099299;27;20163;-86
2021/12/29 01:16:15;;;;;;;87.30;17.15;;;6.60;99.90;;;;;;5111853;27;20508;-86
2021/12/29 01:18:43;;;;;;;71.47;16.45;;;6.60;99.90;;;;;;5097137;27;20167;-86
2021/12/29 01:21:09;;;;;;;86.30;16.40;;;6.60;99.90;;;;;;5125654;27;20099;-86
2021/12/29 01:23:36;;;;;;;98.72;18.55;;;6.60;99.90;;;;;;5095848;27;20050;-86
2021/12/29 01:26:02;;;;;;;84.13;16.77;;;6.60;99.90;;;;;;5110864;27;20057;-86
2021/12/29 01:28:28;;;;;;;98.70;17.67;;;6.60;99.90;;;;;;5112962;27;20618;-86
2021/12/29 01:30:54;;;;;;;89.95;18.52;;;6.60;99.90;;;;;;5095134;27;20130;-86
2021/12/29 01:33:21;;;;;;;78.95;18.30;;;6.60;99.90;;;;;;5112218;27;20068;-86
2021/12/29 01:35:46;;;;;;;82.95;19.00;;;6.70;99.90;;;;;;5119053;27;20039;-86
2021/12/29 01:38:12;;;;;;;76.50;18.23;;;6.70;99.90;;;;;;5111907;27;20042;-86
2021/12/29 01:40:39;;;;;;;105.53;19.40;;;6.60;99.90;;;;;;5094978;27;20043;-86
2021/12/29 01:43:07;;;;;;;102.60;20.67;;;7.00;99.90;;;;;;5111075;27;20039;-87
2021/12/29 01:45:34;;;;;;;98.53;18.92;;;6.80;99.90;;;;;;5094357;27;20039;-86
2021/12/29 01:48:00;;;;;;;93.97;20.27;;;6.80;99.90;;;;;;5093820;27;20403;-86
2021/12/29 01:50:26;;;;;;;74.43;18.83;;;6.70;99.90;;;;;;5095956;27;20043;-86
2021/12/29 01:53:00;;;;;;;73.70;18.17;;;6.70;99.90;;;;;;5114201;27;20042;-85
2021/12/29 01:55:27;;;;;;;75.85;18.10;;;6.70;99.90;;;;;;5094858;27;20051;-86
2021/12/29 01:57:54;;;;;;;66.25;16.92;;;6.70;99.90;;;;;;5095123;27;20536;-86
2021/12/29 02:00:23;;;;;;;84.75;18.98;;;6.70;99.90;;;;;;5088357;27;20471;-86
2021/12/29 02:02:49;;;;;;;103.22;18.67;;;6.70;99.90;;;;;;5093654;27;20031;-86
2021/12/29 02:05:16;;;;;;;74.53;16.90;;;6.70;99.90;;;;;;5094335;27;20078;-85
2021/12/29 02:07:42;;;;;;;74.38;16.92;;;6.70;99.90;;;;;;5092138;27;20019;-85
2021/12/29 02:10:11;;;;;;;55.50;15.00;;;6.70;99.90;;;;;;5110652;27;20459;-85
2021/12/29 02:12:37;;;;;;;84.25;15.80;;;6.70;99.90;;;;;;5110941;27;20051;-85
2021/12/29 02:15:05;;;;;;;116.90;17.80;;;6.70;99.90;;;;;;5108334;27;20047;-86
2021/12/29 02:17:32;;;;;;;66.13;13.65;;;6.70;99.90;;;;;;5093544;27;20035;-87
2021/12/29 02:19:59;;;;;;;60.53;13.85;;;6.70;99.90;;;;;;5089423;27;20051;-85
2021/12/29 02:22:37;;;;;;;78.10;14.68;;;6.80;99.90;;;;;;5114509;27;20043;-86
2021/12/29 02:25:08;;;;;;;72.75;13.73;;;6.70;99.90;;;;;;5107428;27;20035;-86
2021/12/29 02:27:36;;;;;;;65.75;13.73;;;6.80;99.90;;;;;;5110629;27;20047;-85
2021/12/29 02:30:04;;;;;;;68.15;13.55;;;6.80;99.90;;;;;;5093126;27;20043;-86
2021/12/29 02:32:29;;;;;;;60.35;13.10;;;6.80;99.90;;;;;;5093837;27;20050;-86
2021/12/29 02:34:55;;;;;;;64.43;12.48;;;6.80;99.90;;;;;;5089240;27;20043;-86
2021/12/29 02:37:22;;;;;;;51.60;12.15;;;6.80;99.90;;;;;;5088991;27;20743;-86
2021/12/29 02:39:49;;;;;;;67.05;12.88;;;6.80;99.90;;;;;;5108704;27;20123;-87
2021/12/29 02:42:15;;;;;;;58.00;11.98;;;7.50;99.90;;;;;;5109187;27;20047;-86
2021/12/29 02:44:42;;;;;;;64.65;13.05;;;6.90;99.90;;;;;;5110717;27;20043;-87
2021/12/29 02:47:10;;;;;;;50.03;10.80;;;6.90;99.90;;;;;;5093837;27;20072;-86
2021/12/29 02:49:35;;;;;;;52.30;12.00;;;6.90;99.90;;;;;;5110414;27;20114;-87
2021/12/29 02:52:01;;;;;;;63.28;12.98;;;7.00;99.90;;;;;;5093306;27;20166;-86
2021/12/29 02:54:27;;;;;;;60.00;13.98;;;7.00;99.90;;;;;;5109746;27;20050;-89
2021/12/29 02:56:54;;;;;;;51.33;12.77;;;7.00;99.90;;;;;;5108913;27;20051;-87
2021/12/29 02:59:21;;;;;;;52.45;12.63;;;7.00;99.90;;;;;;5106198;27;20043;-88
2021/12/29 03:01:47;;;;;;;49.65;12.95;;;7.00;99.90;;;;;;5089739;27;20069;-86
2021/12/29 03:04:13;;;;;;;42.42;14.02;;;7.10;99.90;;;;;;5085240;27;20681;-87
2021/12/29 03:06:40;;;;;;;46.58;14.38;;;7.10;99.90;;;;;;5086610;27;20023;-86
2021/12/29 03:09:08;;;;;;;46.35;14.68;;;7.10;99.90;;;;;;5085528;27;20502;-90
2021/12/29 03:11:35;;;;;;;55.60;15.77;;;7.10;99.90;;;;;;5086027;27;20039;-86
2021/12/29 03:14:01;;;;;;;49.92;15.73;;;7.20;99.90;;;;;;5102705;27;20503;-86
2021/12/29 03:16:27;;;;;;;58.78;15.35;;;7.20;99.90;;;;;;5104121;27;20095;-87
2021/12/29 03:18:53;;;;;;;51.30;15.15;;;7.60;99.90;;;;;;5104278;27;20038;-86
2021/12/29 03:21:19;;;;;;;65.38;17.30;;;7.20;99.90;;;;;;5102993;27;20057;-86
2021/12/29 03:23:45;;;;;;;70.10;16.27;;;7.20;99.90;;;;;;5086904;27;20035;-85
2021/12/29 03:26:11;;;;;;;59.67;16.65;;;7.20;99.90;;;;;;5085984;27;20062;-86
2021/12/29 03:28:39;;;;;;;55.40;17.05;;;7.20;99.90;;;;;;5085159;27;20047;-85
2021/12/29 03:31:10;;;;;;;71.60;18.40;;;7.20;99.90;;;;;;5089529;27;20042;-85
2021/12/29 03:33:36;;;;;;;;;;;7.20;99.90;;;;;;5092474;27;20442;-86
2021/12/29 03:36:04;;;;;;;47.88;16.88;;;7.20;99.90;;;;;;5108301;27;19926;-86
2021/12/29 03:38:33;;;;;;;58.28;18.75;;;7.20;99.90;;;;;;5114666;27;20086;-87
2021/12/29 03:41:00;;;;;;;61.20;18.60;;;7.20;99.90;;;;;;5091514;27;20346;-85
2021/12/29 03:43:28;;;;;;;61.60;17.98;;;7.20;99.90;;;;;;5087110;27;20035;-85
2021/12/29 03:45:54;;;;;;;85.82;19.70;;;7.30;99.90;;;;;;5090734;27;20118;-86
2021/12/29 03:48:23;;;;;;;62.60;19.30;;;7.30;99.90;;;;;;5097930;27;20051;-85
2021/12/29 03:50:49;;;;;;;53.70;18.38;;;7.30;99.90;;;;;;5084037;27;20122;-86
2021/12/29 03:53:15;;;;;;;72.03;19.92;;;7.20;99.90;;;;;;5086287;27;20083;-85
2021/12/29 03:55:43;;;;;;;60.25;18.73;;;7.30;99.90;;;;;;5085885;27;20043;-85
2021/12/29 03:58:09;;;;;;;56.97;17.70;;;7.30;99.90;;;;;;5104120;27;20070;-86
2021/12/29 04:00:35;;;;;;;61.25;18.80;;;7.30;99.90;;;;;;5108940;27;20071;-85
2021/12/29 04:03:02;;;;;;;57.28;19.05;;;7.20;99.90;;;;;;5107022;27;20244;-86
2021/12/29 04:05:27;;;;;;;56.85;17.70;;;7.30;99.90;;;;;;5092042;27;20035;-86
2021/12/29 04:07:54;;;;;;;51.00;18.23;;;7.20;99.90;;;;;;5105768;27;20166;-86
2021/12/29 04:10:20;;;;;;;54.78;17.55;;;7.20;99.90;;;;;;5105763;28;20043;-86
2021/12/29 04:12:45;;;;;;;50.33;17.23;;;7.20;99.90;;;;;;5108773;27;20039;-86
2021/12/29 04:15:12;;;;;;;59.30;17.95;;;7.20;99.90;;;;;;5092996;27;20431;-86
2021/12/29 04:17:39;;;;;;;50.40;16.23;;;7.20;99.90;;;;;;5091300;28;20155;-87
2021/12/29 04:23:03;;;;;;;58.60;16.65;;;7.20;99.90;;;;;;5104179;27;20049;-87
2021/12/29 04:25:34;;;;;;;54.38;16.75;;;7.80;99.90;;;;;;5079280;28;20213;-86
2021/12/29 04:28:01;;;;;;;48.00;15.43;;;7.20;99.90;;;;;;5075979;28;20027;-86
2021/12/29 04:30:26;;;;;;;46.38;15.73;;;7.20;99.90;;;;;;5085506;28;20047;-86
2021/12/29 04:32:53;;;;;;;46.78;15.70;;;7.20;99.90;;;;;;5088767;27;20752;-86
2021/12/29 04:35:23;;;;;;;50.78;16.75;;;7.20;99.90;;;;;;5084648;28;20035;-87
2021/12/29 04:37:50;;;;;;;45.65;16.50;;;7.30;99.90;;;;;;5086618;27;20079;-86
2021/12/29 04:40:16;;;;;;;60.05;17.05;;;7.80;99.90;;;;;;5085507;28;20043;-86
2021/12/29 04:42:42;;;;;;;49.10;16.77;;;7.20;99.90;;;;;;5083452;28;20138;-86
2021/12/29 04:45:08;;;;;;;61.05;17.95;;;7.20;99.90;;;;;;5084649;27;20047;-85
2021/12/29 04:47:39;;;;;;;52.03;17.70;;;7.30;99.90;;;;;;5089019;28;20387;-86
2021/12/29 04:50:13;;;;;;;58.37;17.60;;;7.90;99.90;;;;;;5092327;28;20541;-86
2021/12/29 04:52:39;;;;;;;46.63;18.15;;;7.30;99.90;;;;;;5091410;28;20046;-86
2021/12/29 04:55:07;;;;;;;51.85;18.70;;;7.30;99.90;;;;;;5108364;27;20043;-86
2021/12/29 04:57:33;;;;;;;56.22;18.83;;;7.30;99.90;;;;;;5091130;28;20071;-86
2021/12/29 04:59:58;;;;;;;57.72;19.90;;;7.30;99.90;;;;;;5105932;28;20139;-86
2021/12/29 05:02:24;;;;;;;54.67;19.30;;;7.30;99.90;;;;;;5090082;28;20043;-87
2021/12/29 05:04:58;;;;;;;55.60;18.88;;;7.30;99.90;;;;;;5105331;28;20148;-85
2021/12/29 05:10:08;;;;;;;49.80;18.52;;;7.90;99.90;;;;;;5104843;28;20051;-85
2021/12/29 05:12:34;;;;;;;59.05;19.45;;;7.30;99.90;;;;;;5090672;28;20322;-85
2021/12/29 05:15:00;;;;;;;45.05;18.55;;;7.30;99.90;;;;;;5089710;28;20074;-86
2021/12/29 05:17:25;;;;;;;54.05;18.70;;;7.30;99.90;;;;;;5089338;28;20442;-86
2021/12/29 05:19:51;;;;;;;50.47;18.42;;;7.30;99.90;;;;;;5088755;28;20108;-86
2021/12/29 05:22:17;;;;;;;43.70;19.40;;;7.40;99.90;;;;;;5087470;28;20035;-88
2021/12/29 05:24:42;;;;;;;52.60;19.38;;;7.30;99.90;;;;;;5089404;28;20118;-85
2021/12/29 05:27:08;;;;;;;51.80;20.00;;;7.40;99.90;;;;;;5106457;28;20063;-85
2021/12/29 05:29:34;;;;;;;55.45;19.35;;;7.30;99.90;;;;;;5089313;27;20071;-84
2021/12/29 05:32:00;;;;;;;50.45;18.45;;;7.30;99.90;;;;;;5110588;27;20053;-84
2021/12/29 05:34:25;;;;;;;43.35;18.70;;;7.30;99.90;;;;;;5111284;27;20447;-85
2021/12/29 05:36:51;;;;;;;42.83;18.92;;;7.30;99.90;;;;;;5093503;27;20061;-85
2021/12/29 05:39:17;;;;;;;53.67;18.15;;;7.90;99.90;;;;;;5094084;27;20091;-86
2021/12/29 05:41:42;;;;;;;47.10;18.48;;;7.30;99.90;;;;;;5095061;27;20043;-86
2021/12/29 05:44:08;;;;;;;60.10;19.60;;;7.30;99.90;;;;;;5082867;27;20051;-85
2021/12/29 05:46:34;;;;;;;45.95;18.95;;;7.30;99.90;;;;;;5113804;27;20035;-85
2021/12/29 05:49:00;;;;;;;58.05;18.42;;;7.30;99.90;;;;;;5082916;27;20407;-86
2021/12/29 05:51:26;;;;;;;63.17;19.38;;;7.30;99.90;;;;;;5112383;27;20050;-86
2021/12/29 05:53:51;;;;;;;66.80;18.80;;;7.30;99.90;;;;;;5092865;27;20511;-86
2021/12/29 05:56:17;;;;;;;46.80;18.63;;;7.30;99.90;;;;;;5091777;27;20049;-85
2021/12/29 05:58:43;;;;;;;54.03;17.70;;;7.30;99.90;;;;;;5110701;27;20460;-85
2021/12/29 06:01:09;;;;;;;49.92;18.30;;;7.30;99.90;;;;;;5092976;27;20043;-85
2021/12/29 06:03:39;;;;;;;62.88;18.52;;;7.30;99.90;;;;;;5093460;27;20529;-86
2021/12/29 06:06:05;;;;;;;57.75;17.92;;;7.30;99.90;;;;;;5110735;27;20047;-85
2021/12/29 06:08:31;;;;;;;60.13;18.85;;;7.30;99.90;;;;;;5092739;27;20055;-85
2021/12/29 06:10:57;;;;;;;50.30;18.33;;;7.30;99.90;;;;;;5095478;27;20526;-86
2021/12/29 06:13:22;;;;;;;53.65;17.63;;;7.30;99.90;;;;;;5094147;27;20038;-85
2021/12/29 06:15:48;;;;;;;52.45;17.27;;;7.20;99.90;;;;;;5078230;28;20050;-86
2021/12/29 06:18:14;;;;;;;54.20;18.48;;;7.20;99.90;;;;;;5094619;27;20047;-85
2021/12/29 06:20:40;;;;;;;54.95;17.50;;;7.20;99.90;;;;;;5093905;27;20043;-85
2021/12/29 06:23:12;;;;;;;43.95;16.92;;;7.20;99.90;;;;;;5097074;27;20078;-85
2021/12/29 06:25:39;;;;;;;67.20;18.23;;;7.30;99.90;;;;;;5095037;27;20055;-84
2021/12/29 06:28:05;;;;;;;59.42;17.27;;;7.20;99.90;;;;;;5105591;27;20050;-85
2021/12/29 06:30:32;;;;;;;77.20;19.17;;;7.20;99.90;;;;;;5095433;27;20050;-85
2021/12/29 06:32:57;;;;;;;59.63;18.38;;;7.30;99.90;;;;;;5092141;27;20039;-85
2021/12/29 06:35:23;;;;;;;70.25;18.08;;;7.20;99.90;;;;;;5097867;27;20184;-85
2021/12/29 06:37:49;;;;;;;61.88;17.92;;;7.30;99.90;;;;;;5088263;27;20039;-86
2021/12/29 06:40:16;;;;;;;71.78;19.13;;;7.30;99.90;;;;;;5103237;27;20415;-86
2021/12/29 06:42:43;;;;;;;61.63;18.33;;;7.20;99.90;;;;;;5093663;27;20042;-85
2021/12/29 06:45:09;;;;;;;73.95;18.20;;;7.20;99.90;;;;;;5098456;27;20093;-85
2021/12/29 06:47:36;;;;;;;64.57;18.13;;;7.30;99.90;;;;;;5076098;27;20039;-84
2021/12/29 06:50:04;;;;;;;59.17;17.33;;;7.30;99.90;;;;;;5079817;27;20041;-85
2021/12/29 06:52:29;;;;;;;91.30;19.02;;;7.20;99.90;;;;;;5094661;27;20102;-85
2021/12/29 06:54:55;;;;;;;93.95;20.45;;;7.30;99.90;;;;;;5094116;27;20239;-86
2021/12/29 06:57:21;;;;;;;57.13;17.95;;;7.30;99.90;;;;;;5112062;27;20039;-86
2021/12/29 06:59:47;;;;;;;63.15;18.48;;;7.30;99.90;;;;;;5079722;27;20043;-84
2021/12/29 07:02:14;;;;;;;75.15;17.08;;;7.30;99.90;;;;;;5091080;27;20047;-85
2021/12/29 07:04:40;;;;;;;97.93;19.38;;;7.30;99.90;;;;;;5117172;27;20123;-84
2021/12/29 07:07:06;;;;;;;59.40;17.17;;;7.30;99.90;;;;;;5104872;27;20384;-84
2021/12/29 07:09:32;;;;;;;95.78;19.67;;;7.30;99.90;;;;;;5083947;27;20645;-84
2021/12/29 07:11:58;;;;;;;64.30;17.52;;;7.30;99.90;;;;;;5089662;27;20042;-84
2021/12/29 07:14:24;;;;;;;64.47;17.23;;;7.30;99.90;;;;;;5118371;27;20051;-84
2021/12/29 07:16:50;;;;;;;88.25;17.70;;;7.30;99.90;;;;;;5123122;27;20569;-84
2021/12/29 07:19:17;;;;;;;75.40;17.13;;;7.30;99.90;;;;;;5090730;27;20047;-84
2021/12/29 07:21:43;;;;;;;57.90;15.13;;;7.30;99.90;;;;;;5107484;27;20089;-87
2021/12/29 07:24:10;;;;;;;66.60;15.90;;;7.30;99.90;;;;;;5103990;27;20039;-84
2021/12/29 07:26:36;;;;;;;53.83;14.75;;;7.30;99.90;;;;;;5082620;28;20051;-85
2021/12/29 07:29:04;;;;;;;47.78;15.32;;;7.30;99.90;;;;;;5097997;27;20821;-85
2021/12/29 07:31:30;;;;;;;55.22;13.77;;;7.30;99.90;;;;;;5094561;27;20050;-85
2021/12/29 07:33:55;;;;;;;50.88;13.93;;;7.30;99.90;;;;;;5102689;27;20631;-85
2021/12/29 07:36:21;;;;;;;43.83;13.95;;;7.30;99.90;;;;;;5092291;27;20043;-86
2021/12/29 07:38:47;;;;;;;58.60;14.00;;;7.30;99.90;;;;;;5110260;27;20046;-85
2021/12/29 07:41:13;;;;;;;54.72;14.13;;;7.30;99.90;;;;;;5093988;27;20086;-85
2021/12/29 07:43:39;;;;;;;66.75;15.05;;;7.30;99.90;;;;;;5092136;27;20128;-85
2021/12/29 07:46:06;;;;;;;50.22;13.70;;;7.30;99.90;;;;;;5119683;27;20483;-85
2021/12/29 07:48:33;;;;;;;70.03;15.32;;;7.30;99.90;;;;;;5109400;27;20403;-85
2021/12/29 07:51:01;;;;;;;65.97;16.00;;;7.30;99.90;;;;;;5091993;27;20059;-85
2021/12/29 07:53:27;;;;;;;73.10;15.85;;;7.30;99.90;;;;;;5087370;28;20066;-85
2021/12/29 07:55:53;;;;;;;45.67;14.13;;;7.30;99.90;;;;;;5071414;28;20152;-86
2021/12/29 08:01:48;;;;;;;58.08;14.88;;;7.30;99.90;;;;;;5046650;28;20468;-85
2021/12/29 08:07:47;;;;;;;81.22;15.73;;;6.80;99.90;;;;;;5000146;28;20045;-86
2021/12/29 08:10:13;;;;;;;65.57;15.35;;;7.50;99.90;;;;;;4995289;28;20575;-86
2021/12/29 08:12:39;;;;;;;78.85;17.05;;;7.70;99.90;;;;;;5034009;28;20054;-85
2021/12/29 08:15:05;;;;;;;93.05;18.48;;;8.20;99.90;;;;;;5073199;28;20136;-86
2021/12/29 08:17:32;;;;;;;72.45;16.63;;;7.30;99.90;;;;;;5074110;28;20409;-86
2021/12/29 08:20:03;;;;;;;70.75;17.65;;;7.30;99.90;;;;;;5055591;28;20043;-86
2021/12/29 08:22:29;;;;;;;74.30;17.10;;;7.30;99.90;;;;;;5062607;28;20542;-86
2021/12/29 08:25:27;;;;;;;82.55;17.13;;;7.30;99.90;;;;;;5054520;28;20044;-86
2021/12/29 08:27:53;;;;;;;93.20;17.15;;;7.90;99.90;;;;;;5092145;28;20036;-86
2021/12/29 08:30:18;;;;;;;61.55;16.35;;;7.70;99.90;;;;;;5052523;28;20043;-86
2021/12/29 08:32:44;;;;;;;98.35;17.35;;;7.40;99.90;;;;;;5065933;28;20050;-86
2021/12/29 08:35:11;;;;;;;201.90;20.52;;;7.30;99.90;;;;;;5052983;28;20107;-86
2021/12/29 08:37:37;;;;;;;79.63;15.80;;;7.40;99.90;;;;;;5057221;28;20392;-85
2021/12/29 08:40:07;;;;;;;76.20;16.05;;;7.40;99.90;;;;;;5069767;28;20112;-86
2021/12/29 08:42:33;;;;;;;104.75;14.88;;;7.40;99.90;;;;;;5071763;28;20120;-86
2021/12/29 08:44:59;;;;;;;83.60;14.20;;;7.40;99.90;;;;;;5072650;28;20059;-84
2021/12/29 08:47:25;;;;;;;72.18;14.20;;;7.40;99.90;;;;;;5059182;28;20036;-85
2021/12/29 08:49:50;;;;;;;80.90;14.40;;;7.40;99.90;;;;;;5104915;28;20055;-85
2021/12/29 08:52:16;;;;;;;90.10;15.85;;;7.40;99.90;;;;;;5065459;28;20130;-84
2021/12/29 08:54:42;;;;;;;88.75;13.57;;;7.40;99.90;;;;;;5097953;27;20162;-85
2021/12/29 08:57:07;;;;;;;98.22;14.50;;;7.40;99.90;;;;;;5116273;27;20035;-85
2021/12/29 08:59:33;;;;;;;57.72;13.40;;;7.50;99.90;;;;;;5082515;28;20296;-84
2021/12/29 09:01:59;;;;;;;87.55;13.75;;;7.40;99.90;;;;;;5090197;28;20043;-85
2021/12/29 09:04:25;;;;;;;95.82;13.43;;;7.50;99.90;;;;;;5100870;28;20040;-84
2021/12/29 09:06:52;;;;;;;80.53;12.88;;;7.50;99.90;;;;;;5105043;27;20043;-85
2021/12/29 09:09:19;;;;;;;74.65;13.00;;;7.50;99.90;;;;;;5094452;27;20432;-85
2021/12/29 09:11:45;;;;;;;127.60;14.50;;;7.50;99.90;;;;;;5077136;27;20134;-85
2021/12/29 09:14:10;;;;;;;182.88;16.50;;;7.50;99.90;;;;;;5101912;27;20126;-85
2021/12/29 09:16:36;;;;;;;69.05;11.75;;;7.60;99.90;;;;;;5086947;27;20415;-84
2021/12/29 09:19:03;;;;;;;238.88;18.65;;;7.50;99.90;;;;;;5088355;27;20201;-85
2021/12/29 09:21:31;;;;;;;73.90;13.82;;;7.60;99.90;;;;;;5112959;27;20042;-85
2021/12/29 09:23:57;;;;;;;58.55;12.35;;;7.60;99.90;;;;;;5111421;27;20039;-84
2021/12/29 09:26:23;;;;;;;103.18;14.60;;;7.60;99.90;;;;;;5089143;27;20571;-85
2021/12/29 09:28:49;;;;;;;60.47;12.35;;;8.10;99.90;;;;;;5105902;27;20051;-85
2021/12/29 09:31:16;;;;;;;141.07;15.95;;;7.60;99.90;;;;;;5089846;27;20229;-85
2021/12/29 09:33:43;;;;;;;127.80;16.52;;;7.60;99.90;;;;;;5103859;27;20074;-84
2021/12/29 09:36:09;;;;;;;88.32;13.50;;;7.70;99.90;;;;;;5099479;27;20075;-85
2021/12/29 09:38:36;;;;;;;56.80;11.93;;;7.70;99.90;;;;;;5102285;27;20082;-84
2021/12/29 09:41:19;;;;;;;71.53;13.00;;;7.70;99.90;;;;;;5104744;27;20503;-85
2021/12/29 09:43:46;;;;;;;55.33;12.55;;;7.70;99.90;;;;;;5103237;27;20505;-84
2021/12/29 09:46:13;;;;;;;54.42;13.45;;;7.80;99.90;;;;;;5082954;27;20107;-84
2021/12/29 09:48:39;;;;;;;82.43;13.57;;;8.50;99.90;;;;;;5088781;27;20050;-84
2021/12/29 09:51:08;;;;;;;52.28;12.88;;;7.80;99.90;;;;;;5097332;27;20036;-85
2021/12/29 09:53:35;;;;;;;37.65;11.18;;;8.00;99.90;;;;;;5084671;27;20044;-85
2021/12/29 09:56:01;;;;;;;37.53;11.45;;;7.90;99.90;;;;;;5071432;28;20040;-84
2021/12/29 09:58:27;;;;;;;67.00;11.75;;;7.80;99.90;;;;;;5076353;27;20077;-85
2021/12/29 10:00:56;;;;;;;60.60;12.00;;;7.80;99.90;;;;;;5066469;28;20655;-86
2021/12/29 10:03:24;;;;;;;46.88;11.77;;;8.10;99.90;;;;;;5067999;28;20048;-85
2021/12/29 10:05:52;;;;;;;69.88;12.43;;;8.50;99.90;;;;;;5069290;27;20059;-85
2021/12/29 10:08:26;;;;;;;39.88;10.75;;;7.90;99.90;;;;;;5062151;27;20043;-84
2021/12/29 10:10:58;;;;;;;34.45;10.63;;;7.90;99.90;;;;;;5073365;27;20058;-84
2021/12/29 10:13:28;;;;;;;36.58;11.18;;;7.90;99.90;;;;;;5064808;28;20046;-85
2021/12/29 10:16:00;;;;;;;32.85;10.45;;;7.90;99.90;;;;;;5083968;28;20758;-84
2021/12/29 10:18:29;;;;;;;39.00;10.48;;;8.00;99.90;;;;;;5072849;28;20052;-85
2021/12/29 10:20:59;;;;;;;41.85;10.73;;;8.00;99.90;;;;;;5063868;28;20154;-84
2021/12/29 10:23:34;;;;;;;38.30;11.43;;;8.20;99.90;;;;;;5082333;28;20040;-84
2021/12/29 10:26:07;;;;;;;35.92;10.85;;;8.00;99.90;;;;;;5076029;27;20043;-85
2021/12/29 10:28:34;;;;;;;30.55;10.63;;;8.00;99.90;;;;;;5080202;27;20470;-85
2021/12/29 10:31:07;;;;;;;33.88;9.88;;;8.10;99.90;;;;;;5100046;27;20322;-85
2021/12/29 10:33:44;;;;;;;34.38;10.02;;;8.10;99.90;;;;;;5100647;27;20043;-85
2021/12/29 10:36:23;;;;;;;34.35;9.13;;;8.10;99.90;;;;;;5100558;27;20035;-85
2021/12/29 10:38:59;;;;;;;34.13;9.73;;;8.30;99.90;;;;;;5086778;27;20366;-85
2021/12/29 10:41:27;;;;;;;32.45;9.05;;;8.10;99.90;;;;;;5065722;27;20041;-86
2021/12/29 10:43:57;;;;;;;39.92;9.82;;;8.10;99.90;;;;;;5073369;28;20255;-84
2021/12/29 10:46:25;;;;;;;34.75;9.23;;;8.10;99.90;;;;;;5070201;27;20047;-84
2021/12/29 10:48:53;;;;;;;26.13;8.27;;;8.10;99.90;;;;;;5083512;28;21069;-84
2021/12/29 10:51:24;;;;;;;36.78;9.63;;;8.10;99.90;;;;;;5055224;28;20052;-84
2021/12/29 10:53:50;;;;;;;32.33;8.68;;;8.00;99.90;;;;;;5047353;27;20138;-85
2021/12/29 10:56:25;;;;;;;27.45;7.72;;;8.10;99.90;;;;;;5059142;27;20040;-85
2021/12/29 10:58:53;;;;;;;31.20;8.02;;;8.00;99.90;;;;;;5070667;28;20052;-86
2021/12/29 11:01:20;;;;;;;30.30;8.25;;;8.00;99.90;;;;;;5052604;28;20457;-85
2021/12/29 11:03:50;;;;;;;26.67;7.93;;;8.00;99.90;;;;;;5091095;28;20093;-85
2021/12/29 11:06:19;;;;;;;24.23;7.40;;;8.00;99.90;;;;;;5060179;28;20051;-84
2021/12/29 11:08:51;;;;;;;34.90;8.82;;;8.00;99.90;;;;;;5088563;28;20134;-84
2021/12/29 11:11:19;;;;;;;32.58;8.05;;;8.00;99.90;;;;;;5074513;28;20092;-86
2021/12/29 11:13:46;;;;;;;25.52;7.72;;;8.00;99.90;;;;;;5059283;28;20058;-84
2021/12/29 11:16:11;;;;;;;28.50;8.90;;;7.90;99.90;;;;;;5061041;28;20591;-84
2021/12/29 11:18:47;;;;;;;27.75;8.80;;;7.90;99.90;;;;;;5073544;28;20050;-85
2021/12/29 11:21:16;;;;;;;32.67;8.88;;;7.90;99.90;;;;;;5054182;28;20051;-85
2021/12/29 11:23:42;;;;;;;34.17;8.40;;;8.00;99.90;;;;;;5059504;28;20043;-85
2021/12/29 11:26:11;;;;;;;31.67;7.80;;;7.90;99.90;;;;;;5073211;28;20039;-85
2021/12/29 11:28:38;;;;;;;28.77;8.38;;;8.00;99.90;;;;;;5060401;28;20043;-84
2021/12/29 11:31:07;;;;;;;29.25;8.52;;;8.00;99.90;;;;;;5058384;28;20042;-85
2021/12/29 11:33:34;;;;;;;31.63;8.50;;;8.00;99.90;;;;;;5073726;28;20164;-85
2021/12/29 11:36:02;;;;;;;33.33;8.95;;;8.00;99.90;;;;;;5057538;28;20129;-86
2021/12/29 11:38:28;;;;;;;38.72;8.90;;;8.00;99.90;;;;;;5060293;28;20380;-85
2021/12/29 11:40:59;;;;;;;57.95;9.43;;;8.00;99.90;;;;;;5073279;28;20047;-86
2021/12/29 11:43:26;;;;;;;32.95;9.45;;;8.00;99.90;;;;;;5048664;28;20135;-84
2021/12/29 11:45:55;;;;;;;29.17;8.52;;;8.00;99.90;;;;;;5100176;27;20050;-86
2021/12/29 11:48:23;;;;;;;30.60;9.05;;;8.10;99.90;;;;;;5053817;28;20068;-85
2021/12/29 11:50:55;;;;;;;38.83;10.20;;;8.10;99.90;;;;;;5061374;28;20093;-85
2021/12/29 11:53:31;;;;;;;;;;;8.20;99.90;;;;;;5064413;27;20054;-84
2021/12/29 11:56:23;;;;;;;32.47;9.45;;;8.20;99.90;;;;;;5097592;27;19949;-86
2021/12/29 11:58:50;;;;;;;33.72;8.82;;;8.20;99.90;;;;;;5070768;27;20093;-85
2021/12/29 12:01:27;;;;;;;42.25;9.65;;;8.30;99.90;;;;;;5097441;27;20035;-85
2021/12/29 12:03:52;;;;;;;27.98;9.02;;;8.30;99.90;;;;;;5077244;27;20058;-86
2021/12/29 12:06:36;;;;;;;40.42;8.65;;;8.30;99.90;;;;;;5092536;27;20047;-85
2021/12/29 12:09:04;;;;;;;27.83;7.90;;;8.30;99.90;;;;;;5076758;28;20051;-86
2021/12/29 12:11:31;;;;;;;32.53;8.27;;;8.80;99.90;;;;;;5099879;28;20054;-85
2021/12/29 12:13:56;;;;;;;24.95;6.70;;;8.90;99.90;;;;;;5085571;27;20587;-86
2021/12/29 12:16:24;;;;;;;24.42;6.68;;;8.30;99.90;;;;;;5097101;27;20039;-86
2021/12/29 12:18:56;;;;;;;27.52;5.93;;;8.30;99.90;;;;;;5072364;28;20058;-86
2021/12/29 12:21:28;;;;;;;21.23;6.03;;;8.30;99.90;;;;;;5096403;27;20050;-86
2021/12/29 12:23:56;;;;;;;21.95;5.35;;;8.40;99.90;;;;;;5084061;28;20039;-85
2021/12/29 12:26:25;;;;;;;24.52;5.50;;;8.60;99.90;;;;;;5086835;28;20054;-85
2021/12/29 12:28:53;;;;;;;26.33;5.60;;;8.20;99.90;;;;;;5073272;28;20087;-85
2021/12/29 12:31:26;;;;;;;28.02;6.13;;;8.20;99.90;;;;;;5074010;28;20095;-85
2021/12/29 12:33:53;;;;;;;26.00;5.32;;;8.30;99.90;;;;;;5122476;28;20039;-85
2021/12/29 12:36:30;;;;;;;21.27;6.07;;;8.20;99.90;;;;;;5075646;28;20291;-85
2021/12/29 12:39:06;;;;;;;27.50;5.60;;;8.20;99.90;;;;;;5084516;27;20133;-85
2021/12/29 12:41:37;;;;;;;23.13;5.57;;;8.20;99.90;;;;;;5078328;27;20091;-85
2021/12/29 12:44:04;;;;;;;18.92;5.85;;;8.10;99.90;;;;;;5096080;27;20129;-85
2021/12/29 12:46:31;;;;;;;23.98;5.70;;;8.10;99.90;;;;;;5075506;27;20488;-85
2021/12/29 12:48:58;;;;;;;21.40;6.13;;;8.60;99.90;;;;;;5076139;27;20583;-85
2021/12/29 12:51:24;;;;;;;22.70;6.15;;;8.50;99.90;;;;;;5079420;27;20097;-84